Time;durP1;ratioP1;P1;durP2;ratioP2;P2;SDS_P1;SDS_P2;PMS_P1;PMS_P2;Temp;Humidity;BMP_temperature;BMP_pressure;BME280_temperature;BME280_humidity;BME280_pressure;Samples;Min_cycle;Max_cycle;Signal;HPM_P1;HPM_P2
2023/03/10 00:00:11;;;;;;;2.60;0.80;;;;;;;;;;516967;28;1259;-71
2023/03/10 00:00:26;;;;;;;2.63;0.90;;;;;;;;;;520034;28;1311;-72
2023/03/10 00:00:42;;;;;;;2.00;0.73;;;;;;;;;;521226;28;1341;-71
2023/03/10 00:00:57;;;;;;;1.97;0.63;;;;;;;;;;521692;28;1309;-71
2023/03/10 00:01:18;;;;;;;1.90;0.60;;;;;;;;;;521428;28;1332;-71
2023/03/10 00:01:33;;;;;;;1.65;0.57;;;;;;;;;;518238;28;1240;-71
2023/03/10 00:01:49;;;;;;;2.00;0.70;;;;;;;;;;521059;28;1409;-71
2023/03/10 00:02:04;;;;;;;2.17;0.70;;;;;;;;;;520867;28;1218;-71
2023/03/10 00:02:20;;;;;;;2.25;0.68;;;;;;;;;;519043;28;1490;-71
2023/03/10 00:02:35;;;;;;;2.42;0.75;;;;;;;;;;517721;28;1112;-71
2023/03/10 00:02:51;;;;;;;2.03;0.70;;;;;;;;;;519901;28;1319;-71
2023/03/10 00:03:06;;;;;;;2.10;0.70;;;;;;;;;;519314;28;1240;-71
2023/03/10 00:03:21;;;;;;;2.28;0.70;;;;;;;;;;517537;28;1447;-71
2023/03/10 00:03:37;;;;;;;2.20;0.70;;;;;;;;;;517539;28;1390;-71
2023/03/10 00:03:53;;;;;;;2.27;0.63;;;;;;;;;;516167;28;1287;-71
2023/03/10 00:04:09;;;;;;;2.35;0.57;;;;;;;;;;520512;28;1397;-71
2023/03/10 00:04:24;;;;;;;2.05;0.60;;;;;;;;;;517302;28;1488;-71
2023/03/10 00:04:39;;;;;;;1.87;0.60;;;;;;;;;;519164;28;1335;-71
2023/03/10 00:04:55;;;;;;;2.30;0.60;;;;;;;;;;519249;28;1248;-71
2023/03/10 00:05:11;;;;;;;2.65;0.70;;;;;;;;;;518510;28;1195;-71
2023/03/10 00:05:26;;;;;;;2.50;0.73;;;;;;;;;;517644;28;1301;-71
2023/03/10 00:05:41;;;;;;;2.22;0.60;;;;;;;;;;520257;28;1619;-71
2023/03/10 00:05:58;;;;;;;1.77;0.60;;;;;;;;;;517341;28;1370;-71
2023/03/10 00:06:15;;;;;;;1.80;0.70;;;;;;;;;;517476;28;1170;-72
2023/03/10 00:06:34;;;;;;;2.42;0.80;;;;;;;;;;519526;28;1239;-72
2023/03/10 00:06:49;;;;;;;2.78;0.73;;;;;;;;;;519489;28;1376;-71
2023/03/10 00:07:05;;;;;;;2.60;0.70;;;;;;;;;;519630;28;1188;-72
2023/03/10 00:07:20;;;;;;;2.43;0.70;;;;;;;;;;520969;28;1338;-72
2023/03/10 00:07:35;;;;;;;2.33;0.60;;;;;;;;;;519709;28;1182;-72
2023/03/10 00:07:50;;;;;;;2.50;0.60;;;;;;;;;;519910;28;1178;-72
2023/03/10 00:08:06;;;;;;;2.23;0.63;;;;;;;;;;520354;28;1359;-72
2023/03/10 00:08:21;;;;;;;2.08;0.60;;;;;;;;;;519685;28;1152;-72
2023/03/10 00:08:36;;;;;;;2.20;0.60;;;;;;;;;;521078;28;1287;-72
2023/03/10 00:08:52;;;;;;;1.97;0.60;;;;;;;;;;520472;28;1217;-71
2023/03/10 00:09:11;;;;;;;1.83;0.52;;;;;;;;;;518313;28;1012;-71
2023/03/10 00:09:26;;;;;;;2.85;0.60;;;;;;;;;;519583;28;1157;-71
2023/03/10 00:09:41;;;;;;;2.03;0.50;;;;;;;;;;520007;28;1910;-72
2023/03/10 00:09:57;;;;;;;1.50;0.50;;;;;;;;;;521457;28;1188;-70
2023/03/10 00:10:13;;;;;;;1.90;0.57;;;;;;;;;;521963;28;1281;-71
2023/03/10 00:10:29;;;;;;;1.27;0.50;;;;;;;;;;519205;28;1272;-71
2023/03/10 00:10:45;;;;;;;1.55;0.60;;;;;;;;;;520320;28;1351;-71
2023/03/10 00:11:00;;;;;;;1.67;0.60;;;;;;;;;;519549;28;1488;-71
2023/03/10 00:11:17;;;;;;;1.33;0.50;;;;;;;;;;519112;28;1302;-71
2023/03/10 00:11:32;;;;;;;1.38;0.52;;;;;;;;;;518844;28;1671;-71
2023/03/10 00:11:48;;;;;;;1.50;0.60;;;;;;;;;;521191;28;1400;-70
2023/03/10 00:12:03;;;;;;;2.03;0.60;;;;;;;;;;519421;28;1240;-71
2023/03/10 00:12:19;;;;;;;2.80;0.77;;;;;;;;;;517261;28;1204;-71
2023/03/10 00:12:34;;;;;;;2.70;0.70;;;;;;;;;;516363;28;1315;-71
2023/03/10 00:12:49;;;;;;;2.13;0.60;;;;;;;;;;518319;28;1365;-70
2023/03/10 00:13:04;;;;;;;2.00;0.60;;;;;;;;;;520119;28;1216;-70
2023/03/10 00:13:20;;;;;;;1.30;0.50;;;;;;;;;;519755;28;1146;-71
2023/03/10 00:13:36;;;;;;;1.03;0.50;;;;;;;;;;519726;28;1102;-71
2023/03/10 00:13:51;;;;;;;1.48;0.57;;;;;;;;;;519823;28;1202;-71
2023/03/10 00:14:06;;;;;;;1.67;0.60;;;;;;;;;;517047;28;1237;-71
2023/03/10 00:14:22;;;;;;;1.67;0.45;;;;;;;;;;515809;28;1408;-71
2023/03/10 00:14:37;;;;;;;1.63;0.53;;;;;;;;;;517448;28;1294;-70
2023/03/10 00:14:53;;;;;;;1.70;0.63;;;;;;;;;;517295;28;1377;-70
2023/03/10 00:15:10;;;;;;;1.52;0.50;;;;;;;;;;519278;28;1295;-70
2023/03/10 00:15:25;;;;;;;1.40;0.50;;;;;;;;;;518227;28;1327;-70
2023/03/10 00:15:40;;;;;;;2.73;0.60;;;;;;;;;;516991;28;1522;-70
2023/03/10 00:15:56;;;;;;;3.15;0.70;;;;;;;;;;519421;28;1238;-71
2023/03/10 00:16:26;;;;;;;2.07;0.60;;;;;;;;;;521679;28;1315;-71
2023/03/10 00:16:41;;;;;;;1.92;0.52;;;;;;;;;;518324;28;1373;-71
2023/03/10 00:16:56;;;;;;;1.70;0.60;;;;;;;;;;519395;28;1396;-71
2023/03/10 00:17:12;;;;;;;1.77;0.70;;;;;;;;;;519736;28;1243;-70
2023/03/10 00:17:28;;;;;;;2.17;0.70;;;;;;;;;;519076;28;1350;-70
2023/03/10 00:17:43;;;;;;;1.55;0.50;;;;;;;;;;521607;28;1531;-72
2023/03/10 00:17:58;;;;;;;1.57;0.50;;;;;;;;;;520373;28;1374;-71
2023/03/10 00:18:14;;;;;;;1.98;0.60;;;;;;;;;;517310;28;1212;-71
2023/03/10 00:18:29;;;;;;;1.87;0.70;;;;;;;;;;517466;28;1468;-71
2023/03/10 00:18:45;;;;;;;2.57;0.60;;;;;;;;;;521783;28;1200;-71
2023/03/10 00:19:00;;;;;;;2.97;0.50;;;;;;;;;;520449;28;1451;-71
2023/03/10 00:19:16;;;;;;;1.88;0.50;;;;;;;;;;520320;28;1203;-71
2023/03/10 00:19:31;;;;;;;1.00;0.50;;;;;;;;;;519958;28;1291;-71
2023/03/10 00:19:46;;;;;;;1.33;0.40;;;;;;;;;;518323;28;1180;-72
2023/03/10 00:20:06;;;;;;;1.63;0.40;;;;;;;;;;518040;28;1457;-72
2023/03/10 00:20:22;;;;;;;1.75;0.50;;;;;;;;;;516367;28;1287;-71
2023/03/10 00:20:37;;;;;;;2.20;0.50;;;;;;;;;;518011;28;1330;-71
2023/03/10 00:20:53;;;;;;;2.05;0.52;;;;;;;;;;516640;28;1404;-72
2023/03/10 00:21:13;;;;;;;1.52;0.60;;;;;;;;;;517421;28;1487;-72
2023/03/10 00:21:30;;;;;;;2.05;0.60;;;;;;;;;;519669;28;1392;-71
2023/03/10 00:21:46;;;;;;;1.98;0.50;;;;;;;;;;519670;28;1219;-71
2023/03/10 00:22:02;;;;;;;1.80;0.60;;;;;;;;;;520583;28;1226;-71
2023/03/10 00:22:17;;;;;;;2.55;0.65;;;;;;;;;;518512;28;1800;-71
2023/03/10 00:22:34;;;;;;;3.13;0.70;;;;;;;;;;519490;28;1342;-71
2023/03/10 00:22:49;;;;;;;2.72;0.63;;;;;;;;;;517776;28;1278;-72
2023/03/10 00:23:04;;;;;;;1.90;0.50;;;;;;;;;;515786;28;1283;-72
2023/03/10 00:23:20;;;;;;;1.88;0.57;;;;;;;;;;519346;28;1268;-72
2023/03/10 00:23:35;;;;;;;2.03;0.52;;;;;;;;;;518403;28;1237;-72
2023/03/10 00:23:52;;;;;;;1.17;0.40;;;;;;;;;;517525;28;1204;-72
2023/03/10 00:24:08;;;;;;;1.15;0.40;;;;;;;;;;519704;28;1271;-72
2023/03/10 00:24:23;;;;;;;1.30;0.50;;;;;;;;;;515528;28;1257;-72
2023/03/10 00:24:38;;;;;;;1.27;0.50;;;;;;;;;;518522;28;1154;-72
2023/03/10 00:24:54;;;;;;;1.33;0.50;;;;;;;;;;517239;28;1316;-71
2023/03/10 00:25:10;;;;;;;1.20;0.50;;;;;;;;;;519939;28;1252;-72
2023/03/10 00:25:25;;;;;;;1.40;0.40;;;;;;;;;;521121;28;1218;-72
2023/03/10 00:25:40;;;;;;;1.77;0.53;;;;;;;;;;519176;28;1539;-72
2023/03/10 00:25:58;;;;;;;1.40;0.60;;;;;;;;;;519151;28;1163;-71
2023/03/10 00:26:15;;;;;;;1.70;0.50;;;;;;;;;;521069;28;1375;-72
2023/03/10 00:26:30;;;;;;;2.33;0.60;;;;;;;;;;521298;28;1373;-72
2023/03/10 00:26:48;;;;;;;1.70;0.60;;;;;;;;;;522639;28;1309;-72
2023/03/10 00:27:03;;;;;;;1.45;0.40;;;;;;;;;;523028;28;1353;-71
2023/03/10 00:27:19;;;;;;;1.73;0.43;;;;;;;;;;520626;28;1205;-72
2023/03/10 00:27:34;;;;;;;1.57;0.50;;;;;;;;;;519098;28;1356;-72
2023/03/10 00:27:51;;;;;;;1.10;0.50;;;;;;;;;;517436;28;1196;-73
2023/03/10 00:28:06;;;;;;;0.98;0.40;;;;;;;;;;516487;28;1369;-72
2023/03/10 00:28:22;;;;;;;0.93;0.40;;;;;;;;;;515821;28;1385;-72
2023/03/10 00:28:38;;;;;;;1.83;0.50;;;;;;;;;;517260;28;1295;-71
2023/03/10 00:28:54;;;;;;;2.17;0.60;;;;;;;;;;518944;28;1326;-72
2023/03/10 00:29:11;;;;;;;1.37;0.50;;;;;;;;;;518137;28;1229;-71
2023/03/10 00:29:26;;;;;;;1.50;0.50;;;;;;;;;;521971;28;1411;-72
2023/03/10 00:29:42;;;;;;;2.15;0.50;;;;;;;;;;518311;28;1950;-71
2023/03/10 00:29:57;;;;;;;2.17;0.50;;;;;;;;;;519029;28;1101;-72
2023/03/10 00:30:13;;;;;;;1.48;0.50;;;;;;;;;;519516;28;1286;-71
2023/03/10 00:30:29;;;;;;;1.23;0.50;;;;;;;;;;516010;28;1447;-72
2023/03/10 00:30:44;;;;;;;2.08;0.47;;;;;;;;;;517445;28;1694;-72
2023/03/10 00:31:02;;;;;;;2.13;0.50;;;;;;;;;;516393;28;1251;-72
2023/03/10 00:31:20;;;;;;;1.48;0.50;;;;;;;;;;517355;28;1295;-72
2023/03/10 00:31:35;;;;;;;1.40;0.50;;;;;;;;;;520451;28;1459;-72
2023/03/10 00:31:50;;;;;;;1.23;0.43;;;;;;;;;;519241;28;1003;-72
2023/03/10 00:32:06;;;;;;;1.57;0.50;;;;;;;;;;520487;28;1161;-72
2023/03/10 00:32:21;;;;;;;1.40;0.50;;;;;;;;;;521245;28;1205;-72
2023/03/10 00:32:37;;;;;;;1.30;0.50;;;;;;;;;;523321;28;1152;-72
2023/03/10 00:32:52;;;;;;;1.37;0.40;;;;;;;;;;519158;28;1337;-71
2023/03/10 00:33:07;;;;;;;1.38;0.50;;;;;;;;;;519319;28;1282;-72
2023/03/10 00:33:22;;;;;;;1.63;0.50;;;;;;;;;;517175;28;1202;-72
2023/03/10 00:33:38;;;;;;;1.73;0.40;;;;;;;;;;520060;28;1347;-71
2023/03/10 00:33:54;;;;;;;1.55;0.43;;;;;;;;;;518906;28;1322;-71
2023/03/10 00:34:11;;;;;;;1.00;0.50;;;;;;;;;;518666;28;1387;-71
2023/03/10 00:34:26;;;;;;;0.80;0.40;;;;;;;;;;521515;28;1273;-72
2023/03/10 00:34:41;;;;;;;1.00;0.30;;;;;;;;;;520562;28;1177;-72
2023/03/10 00:34:57;;;;;;;1.60;0.40;;;;;;;;;;521947;28;1220;-72
2023/03/10 00:35:12;;;;;;;1.60;0.40;;;;;;;;;;523107;28;1312;-72
2023/03/10 00:35:27;;;;;;;1.60;0.50;;;;;;;;;;520723;28;1211;-71
2023/03/10 00:35:43;;;;;;;1.63;0.53;;;;;;;;;;518485;28;1478;-72
2023/03/10 00:36:28;;;;;;;1.57;0.50;;;;;;;;;;517996;28;1536;-72
2023/03/10 00:36:43;;;;;;;1.48;0.50;;;;;;;;;;516325;28;1283;-72
2023/03/10 00:36:58;;;;;;;2.70;0.57;;;;;;;;;;519641;28;1360;-72
2023/03/10 00:37:14;;;;;;;2.57;0.50;;;;;;;;;;520492;28;1208;-72
2023/03/10 00:37:29;;;;;;;1.55;0.50;;;;;;;;;;521588;28;1263;-72
2023/03/10 00:37:45;;;;;;;2.13;0.50;;;;;;;;;;520097;28;1280;-72
2023/03/10 00:38:01;;;;;;;2.35;0.50;;;;;;;;;;518902;28;1247;-71
2023/03/10 00:38:16;;;;;;;1.60;0.50;;;;;;;;;;516530;28;1501;-71
2023/03/10 00:38:32;;;;;;;1.60;0.40;;;;;;;;;;516943;28;1129;-72
2023/03/10 00:38:49;;;;;;;1.75;0.50;;;;;;;;;;516520;28;1292;-73
2023/03/10 00:39:04;;;;;;;2.10;0.50;;;;;;;;;;516062;28;1378;-72
2023/03/10 00:39:19;;;;;;;1.70;0.40;;;;;;;;;;518093;28;1208;-72
2023/03/10 00:39:35;;;;;;;1.30;0.43;;;;;;;;;;517748;28;1388;-72
2023/03/10 00:39:51;;;;;;;1.40;0.40;;;;;;;;;;517640;28;1426;-72
2023/03/10 00:40:14;;;;;;;1.48;0.40;;;;;;;;;;519676;28;1382;-72
2023/03/10 00:40:29;;;;;;;0.88;0.40;;;;;;;;;;519981;28;1075;-72
2023/03/10 00:40:44;;;;;;;0.80;0.33;;;;;;;;;;518214;28;1317;-71
2023/03/10 00:41:03;;;;;;;1.17;0.45;;;;;;;;;;519159;28;1231;-71
2023/03/10 00:41:21;;;;;;;1.08;0.32;;;;;;;;;;521432;28;1247;-72
2023/03/10 00:41:38;;;;;;;1.33;0.40;;;;;;;;;;521658;28;1465;-72
2023/03/10 00:41:53;;;;;;;1.70;0.50;;;;;;;;;;517877;28;1455;-72
2023/03/10 00:42:08;;;;;;;1.40;0.50;;;;;;;;;;519810;28;1082;-72
2023/03/10 00:42:23;;;;;;;1.07;0.37;;;;;;;;;;519831;28;1193;-72
2023/03/10 00:42:40;;;;;;;1.23;0.38;;;;;;;;;;522926;28;1425;-72
2023/03/10 00:42:55;;;;;;;1.50;0.50;;;;;;;;;;516934;28;1329;-72
2023/03/10 00:43:10;;;;;;;1.97;0.50;;;;;;;;;;519365;28;1356;-72
2023/03/10 00:43:26;;;;;;;1.83;0.40;;;;;;;;;;518455;28;1197;-72
2023/03/10 00:43:42;;;;;;;1.23;0.38;;;;;;;;;;519128;28;1423;-72
2023/03/10 00:44:00;;;;;;;0.90;0.40;;;;;;;;;;517125;28;1478;-72
2023/03/10 00:44:16;;;;;;;1.30;0.50;;;;;;;;;;518501;28;1163;-72
2023/03/10 00:44:32;;;;;;;1.70;0.50;;;;;;;;;;517566;28;1523;-72
2023/03/10 00:44:47;;;;;;;1.48;0.50;;;;;;;;;;519167;28;1398;-72
2023/03/10 00:45:03;;;;;;;1.50;0.50;;;;;;;;;;521091;28;1293;-72
2023/03/10 00:45:18;;;;;;;1.50;0.40;;;;;;;;;;516685;28;1236;-72
2023/03/10 00:45:34;;;;;;;1.10;0.40;;;;;;;;;;515712;28;1184;-72
2023/03/10 00:45:50;;;;;;;1.55;0.43;;;;;;;;;;518417;28;1370;-71
2023/03/10 00:46:06;;;;;;;1.83;0.50;;;;;;;;;;519895;28;1440;-71
2023/03/10 00:46:22;;;;;;;1.80;0.50;;;;;;;;;;519181;28;1374;-72
2023/03/10 00:46:38;;;;;;;1.85;0.50;;;;;;;;;;518186;28;1417;-71
2023/03/10 00:46:53;;;;;;;1.93;0.50;;;;;;;;;;520207;28;1138;-72
2023/03/10 00:47:09;;;;;;;1.58;0.40;;;;;;;;;;520838;28;1046;-72
2023/03/10 00:47:24;;;;;;;1.60;0.40;;;;;;;;;;518484;28;1231;-71
2023/03/10 00:47:39;;;;;;;1.60;0.40;;;;;;;;;;520057;28;1209;-72
2023/03/10 00:47:55;;;;;;;1.48;0.50;;;;;;;;;;519973;28;1245;-72
2023/03/10 00:48:10;;;;;;;1.70;0.50;;;;;;;;;;518597;28;1506;-71
2023/03/10 00:48:26;;;;;;;1.40;0.40;;;;;;;;;;521156;28;1270;-71
2023/03/10 00:48:42;;;;;;;1.20;0.40;;;;;;;;;;521343;28;1434;-72
2023/03/10 00:48:57;;;;;;;1.38;0.40;;;;;;;;;;520807;28;1334;-72
2023/03/10 00:49:14;;;;;;;1.40;0.40;;;;;;;;;;517768;28;1212;-72
2023/03/10 00:49:29;;;;;;;1.63;0.47;;;;;;;;;;520633;28;1460;-72
2023/03/10 00:49:46;;;;;;;1.20;0.40;;;;;;;;;;519360;28;1981;-71
2023/03/10 00:50:02;;;;;;;1.02;0.40;;;;;;;;;;516761;28;1323;-71
2023/03/10 00:50:17;;;;;;;1.20;0.50;;;;;;;;;;515135;28;1242;-72
2023/03/10 00:50:32;;;;;;;1.47;0.50;;;;;;;;;;516622;28;1098;-72
2023/03/10 00:50:48;;;;;;;2.00;0.45;;;;;;;;;;516911;28;1205;-72
2023/03/10 00:51:04;;;;;;;2.33;0.40;;;;;;;;;;517408;28;1230;-72
2023/03/10 00:51:20;;;;;;;2.22;0.45;;;;;;;;;;517726;28;1271;-72
2023/03/10 00:51:35;;;;;;;1.50;0.43;;;;;;;;;;516458;28;1352;-71
2023/03/10 00:51:50;;;;;;;1.03;0.40;;;;;;;;;;520505;28;1488;-72
2023/03/10 00:52:05;;;;;;;1.05;0.40;;;;;;;;;;516159;28;1374;-73
2023/03/10 00:52:21;;;;;;;0.60;0.30;;;;;;;;;;518787;28;1488;-71
2023/03/10 00:52:36;;;;;;;0.90;0.37;;;;;;;;;;522339;28;1235;-72
2023/03/10 00:52:52;;;;;;;1.17;0.40;;;;;;;;;;521633;28;1118;-72
2023/03/10 00:53:08;;;;;;;1.50;0.43;;;;;;;;;;522949;28;1268;-72
2023/03/10 00:53:24;;;;;;;1.53;0.50;;;;;;;;;;521326;28;1187;-72
2023/03/10 00:53:40;;;;;;;1.35;0.50;;;;;;;;;;521092;28;1166;-72
2023/03/10 00:53:55;;;;;;;1.25;0.40;;;;;;;;;;521866;28;1266;-72
2023/03/10 00:54:11;;;;;;;1.13;0.40;;;;;;;;;;519134;28;1218;-72
2023/03/10 00:54:26;;;;;;;0.90;0.40;;;;;;;;;;517320;28;1306;-72
2023/03/10 00:54:42;;;;;;;2.00;0.40;;;;;;;;;;519450;28;1296;-72
2023/03/10 00:54:57;;;;;;;2.17;0.40;;;;;;;;;;518925;28;1351;-72
2023/03/10 00:55:12;;;;;;;1.20;0.43;;;;;;;;;;519443;28;1342;-72
2023/03/10 00:55:27;;;;;;;1.27;0.40;;;;;;;;;;520842;28;1402;-73
2023/03/10 00:55:43;;;;;;;1.27;0.40;;;;;;;;;;521907;28;1207;-71
2023/03/10 00:56:01;;;;;;;1.58;0.40;;;;;;;;;;522230;28;1318;-72
2023/03/10 00:56:20;;;;;;;1.67;0.55;;;;;;;;;;519210;28;1364;-72
2023/03/10 00:56:35;;;;;;;1.83;0.57;;;;;;;;;;518197;28;1194;-71
2023/03/10 00:56:51;;;;;;;1.65;0.40;;;;;;;;;;520138;28;1089;-71
2023/03/10 00:57:07;;;;;;;1.40;0.50;;;;;;;;;;519323;28;1321;-72
2023/03/10 00:57:22;;;;;;;1.70;0.50;;;;;;;;;;521049;28;1231;-72
2023/03/10 00:57:38;;;;;;;1.97;0.50;;;;;;;;;;518895;28;1195;-72
2023/03/10 00:57:53;;;;;;;1.97;0.50;;;;;;;;;;517704;28;1223;-72
2023/03/10 00:58:08;;;;;;;1.33;0.40;;;;;;;;;;520516;28;1271;-72
2023/03/10 00:58:24;;;;;;;1.37;0.50;;;;;;;;;;521384;28;1215;-72
2023/03/10 00:58:40;;;;;;;1.43;0.50;;;;;;;;;;517820;28;1271;-72
2023/03/10 00:58:58;;;;;;;1.15;0.50;;;;;;;;;;522343;28;1404;-72
2023/03/10 00:59:14;;;;;;;1.65;0.55;;;;;;;;;;520944;28;1286;-72
2023/03/10 00:59:29;;;;;;;2.07;0.70;;;;;;;;;;521653;28;1232;-72
2023/03/10 00:59:44;;;;;;;1.92;0.63;;;;;;;;;;521704;28;1142;-72
2023/03/10 00:59:59;;;;;;;1.90;0.53;;;;;;;;;;521594;28;1407;-73
2023/03/10 01:00:16;;;;;;;1.73;0.50;;;;;;;;;;520861;28;1278;-72
2023/03/10 01:00:32;;;;;;;1.55;0.50;;;;;;;;;;519909;28;1459;-72
2023/03/10 01:00:47;;;;;;;1.70;0.50;;;;;;;;;;521393;28;1444;-72
2023/03/10 01:01:04;;;;;;;1.60;0.40;;;;;;;;;;520356;28;1201;-72
2023/03/10 01:01:31;;;;;;;1.25;0.47;;;;;;;;;;519645;28;1346;-72
2023/03/10 01:01:46;;;;;;;1.75;0.50;;;;;;;;;;519350;28;1541;-72
2023/03/10 01:02:02;;;;;;;2.37;0.50;;;;;;;;;;521695;28;1390;-73
2023/03/10 01:02:18;;;;;;;2.05;0.43;;;;;;;;;;524426;28;1297;-72
2023/03/10 01:02:33;;;;;;;1.40;0.50;;;;;;;;;;525548;28;1543;-72
2023/03/10 01:02:51;;;;;;;1.77;0.53;;;;;;;;;;520156;28;1359;-72
2023/03/10 01:03:06;;;;;;;2.40;0.60;;;;;;;;;;519502;28;1299;-72
2023/03/10 01:03:23;;;;;;;2.00;0.50;;;;;;;;;;520239;28;1212;-72
2023/03/10 01:03:38;;;;;;;1.98;0.47;;;;;;;;;;521301;28;1354;-71
2023/03/10 01:03:56;;;;;;;2.30;0.60;;;;;;;;;;520843;28;1227;-72
2023/03/10 01:04:14;;;;;;;1.40;0.43;;;;;;;;;;518470;28;1393;-73
2023/03/10 01:04:29;;;;;;;1.35;0.35;;;;;;;;;;519396;28;1302;-72
2023/03/10 01:04:47;;;;;;;1.67;0.50;;;;;;;;;;519665;28;1378;-72
2023/03/10 01:05:02;;;;;;;1.70;0.50;;;;;;;;;;520071;28;1215;-72
2023/03/10 01:05:18;;;;;;;1.63;0.50;;;;;;;;;;521070;28;1183;-72
2023/03/10 01:05:33;;;;;;;1.38;0.43;;;;;;;;;;521811;28;1089;-72
2023/03/10 01:05:50;;;;;;;1.42;0.52;;;;;;;;;;521262;28;1208;-72
2023/03/10 01:06:05;;;;;;;1.80;0.60;;;;;;;;;;523654;28;1326;-72
2023/03/10 01:06:21;;;;;;;1.63;0.50;;;;;;;;;;522544;28;1326;-72
2023/03/10 01:06:36;;;;;;;2.00;0.43;;;;;;;;;;524054;28;1114;-71
2023/03/10 01:06:51;;;;;;;2.20;0.50;;;;;;;;;;521805;28;1257;-72
2023/03/10 01:07:07;;;;;;;1.40;0.50;;;;;;;;;;520903;28;1327;-72
2023/03/10 01:07:22;;;;;;;1.02;0.50;;;;;;;;;;520272;28;1360;-72
2023/03/10 01:07:37;;;;;;;1.70;0.50;;;;;;;;;;517523;28;1388;-71
2023/03/10 01:07:53;;;;;;;2.33;0.60;;;;;;;;;;517137;28;1204;-71
2023/03/10 01:08:08;;;;;;;1.90;0.60;;;;;;;;;;518064;28;1223;-72
2023/03/10 01:08:23;;;;;;;1.90;0.60;;;;;;;;;;518474;28;1110;-71
2023/03/10 01:08:39;;;;;;;1.83;0.50;;;;;;;;;;517627;28;1279;-72
2023/03/10 01:08:54;;;;;;;1.73;0.50;;;;;;;;;;521539;28;1512;-72
2023/03/10 01:09:10;;;;;;;2.10;0.60;;;;;;;;;;517631;28;1330;-71
2023/03/10 01:09:25;;;;;;;1.92;0.50;;;;;;;;;;518374;28;1202;-72
2023/03/10 01:09:41;;;;;;;1.50;0.40;;;;;;;;;;520434;28;1982;-72
2023/03/10 01:09:56;;;;;;;1.77;0.50;;;;;;;;;;519343;28;1431;-72
2023/03/10 01:10:12;;;;;;;2.03;0.50;;;;;;;;;;517024;28;1373;-72
2023/03/10 01:10:27;;;;;;;2.00;0.52;;;;;;;;;;516507;28;1185;-72
2023/03/10 01:10:43;;;;;;;1.60;0.47;;;;;;;;;;517026;28;1267;-72
2023/03/10 01:10:59;;;;;;;1.23;0.52;;;;;;;;;;519177;28;1465;-72
2023/03/10 01:11:16;;;;;;;1.70;0.70;;;;;;;;;;521275;28;1503;-72
2023/03/10 01:11:32;;;;;;;1.92;0.63;;;;;;;;;;520269;28;1255;-72
2023/03/10 01:11:48;;;;;;;1.77;0.57;;;;;;;;;;519092;28;1407;-72
2023/03/10 01:12:03;;;;;;;2.78;0.50;;;;;;;;;;521444;28;1109;-71
2023/03/10 01:12:18;;;;;;;2.53;0.50;;;;;;;;;;520710;28;1185;-71
2023/03/10 01:12:34;;;;;;;2.07;0.53;;;;;;;;;;521453;28;1263;-71
2023/03/10 01:12:49;;;;;;;2.10;0.60;;;;;;;;;;520549;28;1204;-72
2023/03/10 01:13:05;;;;;;;1.97;0.60;;;;;;;;;;519528;28;1258;-72
2023/03/10 01:13:20;;;;;;;1.77;0.60;;;;;;;;;;519582;28;1391;-72
2023/03/10 01:13:36;;;;;;;2.28;0.60;;;;;;;;;;520536;28;1402;-71
2023/03/10 01:13:52;;;;;;;2.30;0.60;;;;;;;;;;521437;28;1225;-72
2023/03/10 01:14:11;;;;;;;2.22;0.60;;;;;;;;;;520475;28;1238;-72
2023/03/10 01:14:26;;;;;;;1.60;0.55;;;;;;;;;;519187;28;1391;-71
2023/03/10 01:14:42;;;;;;;1.63;0.50;;;;;;;;;;519399;28;1428;-72
2023/03/10 01:14:57;;;;;;;1.83;0.60;;;;;;;;;;521645;28;1294;-72
2023/03/10 01:15:12;;;;;;;2.20;0.60;;;;;;;;;;518954;28;1496;-71
2023/03/10 01:15:28;;;;;;;1.65;0.52;;;;;;;;;;518041;28;1224;-72
2023/03/10 01:15:43;;;;;;;0.97;0.50;;;;;;;;;;519677;28;1297;-71
2023/03/10 01:15:58;;;;;;;1.63;0.60;;;;;;;;;;519144;28;1169;-72
2023/03/10 01:16:14;;;;;;;2.03;0.60;;;;;;;;;;519630;28;1324;-72
2023/03/10 01:16:30;;;;;;;1.70;0.50;;;;;;;;;;521316;28;1424;-71
2023/03/10 01:16:45;;;;;;;1.73;0.40;;;;;;;;;;518709;28;1112;-71
2023/03/10 01:17:02;;;;;;;2.08;0.50;;;;;;;;;;517525;28;1231;-72
2023/03/10 01:17:18;;;;;;;2.03;0.60;;;;;;;;;;521428;28;1794;-72
2023/03/10 01:17:33;;;;;;;1.93;0.60;;;;;;;;;;521247;28;1441;-72
2023/03/10 01:17:48;;;;;;;1.80;0.50;;;;;;;;;;518954;28;1311;-73
2023/03/10 01:18:04;;;;;;;1.47;0.40;;;;;;;;;;520743;28;1266;-72
2023/03/10 01:18:20;;;;;;;1.57;0.50;;;;;;;;;;518826;28;1472;-72
2023/03/10 01:18:35;;;;;;;1.83;0.50;;;;;;;;;;519883;28;1228;-72
2023/03/10 01:18:51;;;;;;;1.40;0.40;;;;;;;;;;520357;28;1241;-72
2023/03/10 01:19:06;;;;;;;0.85;0.40;;;;;;;;;;518852;28;1374;-72
2023/03/10 01:19:22;;;;;;;1.83;0.50;;;;;;;;;;520780;28;1381;-71
2023/03/10 01:19:37;;;;;;;1.83;0.40;;;;;;;;;;519883;28;1264;-73
2023/03/10 01:19:52;;;;;;;1.85;0.50;;;;;;;;;;519181;28;1308;-72
2023/03/10 01:20:12;;;;;;;2.43;0.50;;;;;;;;;;519395;28;1322;-72
2023/03/10 01:20:30;;;;;;;1.90;0.52;;;;;;;;;;516898;28;1197;-72
2023/03/10 01:20:46;;;;;;;1.87;0.60;;;;;;;;;;519099;28;1187;-72
2023/03/10 01:21:02;;;;;;;2.00;0.60;;;;;;;;;;520050;28;1447;-72
2023/03/10 01:21:21;;;;;;;1.83;0.52;;;;;;;;;;520396;28;1314;-72
2023/03/10 01:21:37;;;;;;;1.67;0.50;;;;;;;;;;518740;28;1366;-72
2023/03/10 01:21:53;;;;;;;1.80;0.50;;;;;;;;;;523018;28;1424;-72
2023/03/10 01:22:08;;;;;;;2.00;0.57;;;;;;;;;;520783;28;1266;-72
2023/03/10 01:22:23;;;;;;;2.03;0.70;;;;;;;;;;525059;28;1321;-72
2023/03/10 01:22:39;;;;;;;1.90;0.60;;;;;;;;;;521658;28;1491;-72
2023/03/10 01:22:54;;;;;;;1.70;0.60;;;;;;;;;;520027;28;1272;-73
2023/03/10 01:23:18;;;;;;;1.87;0.60;;;;;;;;;;520798;28;1300;-72
2023/03/10 01:23:33;;;;;;;2.25;0.65;;;;;;;;;;517315;28;1405;-72
2023/03/10 01:23:49;;;;;;;2.40;0.70;;;;;;;;;;518154;28;1219;-72
2023/03/10 01:24:07;;;;;;;2.03;0.65;;;;;;;;;;519225;28;1169;-72
2023/03/10 01:24:22;;;;;;;1.83;0.60;;;;;;;;;;516962;28;1535;-72
2023/03/10 01:24:37;;;;;;;1.77;0.50;;;;;;;;;;517551;28;1196;-72
2023/03/10 01:24:53;;;;;;;2.03;0.50;;;;;;;;;;517062;28;1248;-72
2023/03/10 01:25:13;;;;;;;2.03;0.60;;;;;;;;;;519981;28;1126;-72
2023/03/10 01:25:28;;;;;;;1.50;0.57;;;;;;;;;;517175;28;1384;-73
2023/03/10 01:25:44;;;;;;;1.77;0.60;;;;;;;;;;518595;28;1196;-73
2023/03/10 01:25:59;;;;;;;1.90;0.50;;;;;;;;;;517800;28;1380;-73
2023/03/10 01:26:15;;;;;;;1.87;0.47;;;;;;;;;;516508;28;1265;-73
2023/03/10 01:26:31;;;;;;;1.45;0.50;;;;;;;;;;519041;28;1234;-72
2023/03/10 01:26:46;;;;;;;1.40;0.50;;;;;;;;;;519200;28;1420;-73
2023/03/10 01:27:01;;;;;;;1.80;0.60;;;;;;;;;;519444;28;1437;-72
2023/03/10 01:27:17;;;;;;;1.97;0.50;;;;;;;;;;516292;28;1338;-72
2023/03/10 01:27:32;;;;;;;1.50;0.40;;;;;;;;;;517225;28;1323;-72
2023/03/10 01:27:47;;;;;;;1.67;0.50;;;;;;;;;;519079;28;1190;-73
2023/03/10 01:28:03;;;;;;;1.97;0.60;;;;;;;;;;520680;28;1208;-72
2023/03/10 01:28:19;;;;;;;1.95;0.57;;;;;;;;;;520669;28;1474;-72
2023/03/10 01:28:34;;;;;;;2.20;0.60;;;;;;;;;;519617;28;1291;-72
2023/03/10 01:28:50;;;;;;;1.73;0.60;;;;;;;;;;518713;28;1216;-72
2023/03/10 01:29:05;;;;;;;1.50;0.55;;;;;;;;;;518412;28;1315;-72
2023/03/10 01:29:20;;;;;;;1.50;0.50;;;;;;;;;;517870;28;1199;-73
2023/03/10 01:29:36;;;;;;;1.27;0.40;;;;;;;;;;517260;28;1930;-72
2023/03/10 01:29:51;;;;;;;1.35;0.45;;;;;;;;;;519516;28;1224;-71
2023/03/10 01:30:07;;;;;;;1.63;0.60;;;;;;;;;;519110;28;1189;-72
2023/03/10 01:30:23;;;;;;;1.40;0.52;;;;;;;;;;520205;28;1215;-72
2023/03/10 01:30:39;;;;;;;1.25;0.50;;;;;;;;;;520987;28;1318;-71
2023/03/10 01:30:55;;;;;;;2.03;0.60;;;;;;;;;;521368;28;1505;-72
2023/03/10 01:31:10;;;;;;;2.05;0.52;;;;;;;;;;521053;28;1232;-72
2023/03/10 01:31:26;;;;;;;2.17;0.57;;;;;;;;;;518997;28;1239;-72
2023/03/10 01:31:41;;;;;;;2.70;0.60;;;;;;;;;;517932;28;1330;-72
2023/03/10 01:31:56;;;;;;;2.30;0.60;;;;;;;;;;516956;28;1244;-71
2023/03/10 01:32:12;;;;;;;1.85;0.52;;;;;;;;;;517057;28;1224;-72
2023/03/10 01:32:27;;;;;;;1.87;0.60;;;;;;;;;;515946;28;1177;-73
2023/03/10 01:32:42;;;;;;;1.37;0.60;;;;;;;;;;518048;28;1208;-72
2023/03/10 01:32:57;;;;;;;1.60;0.40;;;;;;;;;;515676;28;1319;-72
2023/03/10 01:33:14;;;;;;;2.45;0.50;;;;;;;;;;517880;28;1376;-72
2023/03/10 01:33:29;;;;;;;2.35;0.60;;;;;;;;;;518522;28;1479;-71
2023/03/10 01:33:45;;;;;;;1.53;0.50;;;;;;;;;;519556;28;1333;-71
2023/03/10 01:34:00;;;;;;;1.65;0.57;;;;;;;;;;519250;28;1377;-71
2023/03/10 01:34:16;;;;;;;1.70;0.50;;;;;;;;;;519870;28;1224;-71
2023/03/10 01:34:31;;;;;;;1.60;0.53;;;;;;;;;;517544;28;1365;-72
2023/03/10 01:34:47;;;;;;;1.70;0.50;;;;;;;;;;517597;28;1386;-72
2023/03/10 01:35:04;;;;;;;1.50;0.40;;;;;;;;;;517701;28;1502;-73
2023/03/10 01:35:19;;;;;;;1.80;0.55;;;;;;;;;;517881;28;1206;-72
2023/03/10 01:35:35;;;;;;;1.33;0.60;;;;;;;;;;517976;28;1375;-73
2023/03/10 01:35:50;;;;;;;1.77;0.60;;;;;;;;;;517848;28;1269;-73
2023/03/10 01:36:10;;;;;;;2.33;0.60;;;;;;;;;;519088;28;1094;-73
2023/03/10 01:36:26;;;;;;;1.75;0.50;;;;;;;;;;516481;28;1840;-73
2023/03/10 01:36:41;;;;;;;1.50;0.45;;;;;;;;;;520431;28;1440;-73
2023/03/10 01:36:57;;;;;;;1.60;0.50;;;;;;;;;;517022;28;1256;-73
2023/03/10 01:37:12;;;;;;;1.30;0.50;;;;;;;;;;519407;28;1303;-73
2023/03/10 01:37:27;;;;;;;1.50;0.52;;;;;;;;;;519547;28;1359;-72
2023/03/10 01:37:43;;;;;;;1.67;0.60;;;;;;;;;;518984;28;1272;-72
2023/03/10 01:37:58;;;;;;;2.33;0.60;;;;;;;;;;518348;28;1309;-72
2023/03/10 01:38:14;;;;;;;2.47;0.60;;;;;;;;;;518734;28;1239;-72
2023/03/10 01:38:29;;;;;;;1.93;0.50;;;;;;;;;;516633;28;1436;-72
2023/03/10 01:38:46;;;;;;;1.88;0.50;;;;;;;;;;518983;28;1288;-73